Time;durP1;ratioP1;P1;durP2;ratioP2;P2;SDS_P1;SDS_P2;PMS_P1;PMS_P2;Temp;Humidity;BMP_temperature;BMP_pressure;BME280_temperature;BME280_humidity;BME280_pressure;Samples;Min_cycle;Max_cycle;Signal;HPM_P1;HPM_P2
2022/07/06 00:00:38;;;;;;;4.72;4.00;;;;;;;17.41;100.00;100221.69;5590508;31;34064;-67
2022/07/06 00:03:41;;;;;;;5.78;4.47;;;;;;;17.37;100.00;100238.22;5590537;31;34589;-68
2022/07/06 00:06:44;;;;;;;4.53;4.12;;;;;;;17.35;100.00;100239.44;5589720;31;32534;-66
2022/07/06 00:09:46;;;;;;;4.87;4.05;;;;;;;17.31;100.00;100235.56;5590450;31;33985;-67
2022/07/06 00:12:49;;;;;;;5.53;4.22;;;;;;;17.37;100.00;100230.16;5590352;31;35057;-67
2022/07/06 00:15:52;;;;;;;5.07;4.18;;;;;;;17.28;100.00;100218.03;5590409;31;33954;-68
2022/07/06 00:18:54;;;;;;;5.75;4.15;;;;;;;17.30;100.00;100225.84;5590301;31;34433;-67
2022/07/06 00:21:57;;;;;;;5.47;4.50;;;;;;;17.24;100.00;100226.72;5590339;31;33820;-66
2022/07/06 00:25:00;;;;;;;4.80;4.10;;;;;;;17.19;100.00;100226.53;5590299;31;33839;-65
2022/07/06 00:28:03;;;;;;;5.70;4.40;;;;;;;17.20;100.00;100217.47;5590100;31;34219;-67
2022/07/06 00:31:05;;;;;;;7.05;4.32;;;;;;;17.17;100.00;100223.25;5590319;31;34649;-70
2022/07/06 00:34:08;;;;;;;7.12;4.30;;;;;;;17.16;100.00;100229.66;5590477;31;33913;-70
2022/07/06 00:37:11;;;;;;;5.75;4.55;;;;;;;17.17;100.00;100225.94;5590254;31;34331;-69
2022/07/06 00:40:14;;;;;;;5.60;4.22;;;;;;;17.09;100.00;100227.00;5590148;31;34317;-65
2022/07/06 00:43:16;;;;;;;7.20;4.28;;;;;;;17.10;100.00;100238.53;5590200;31;34515;-69
2022/07/06 00:46:23;;;;;;;4.82;4.10;;;;;;;17.09;100.00;100231.56;5590168;31;34547;-69
2022/07/06 00:52:50;;;;;;;7.03;4.20;;;;;;;17.07;100.00;100228.25;5589462;31;32386;-68
2022/07/06 00:55:53;;;;;;;5.35;4.07;;;;;;;17.04;100.00;100226.00;5590095;31;33873;-67
2022/07/06 00:58:56;;;;;;;4.80;3.87;;;;;;;17.09;100.00;100228.88;5590044;31;33919;-67
2022/07/06 01:01:58;;;;;;;5.55;4.00;;;;;;;17.05;100.00;100223.09;5589096;31;33581;-67
2022/07/06 01:05:05;;;;;;;4.75;4.25;;;;;;;17.05;100.00;100224.94;5589989;31;34609;-66
2022/07/06 01:08:07;;;;;;;5.10;4.30;;;;;;;16.98;100.00;100221.50;5589339;31;32991;-66
2022/07/06 01:11:10;;;;;;;5.30;4.20;;;;;;;17.02;100.00;100226.22;5589228;31;34091;-69
2022/07/06 01:14:14;;;;;;;4.87;4.30;;;;;;;16.94;100.00;100224.59;5589084;31;35075;-67
2022/07/06 01:17:18;;;;;;;5.57;4.30;;;;;;;16.94;100.00;100221.91;5589917;31;34542;-66
2022/07/06 01:20:22;;;;;;;4.93;4.43;;;;;;;16.95;100.00;100222.72;5590141;31;33851;-68
2022/07/06 01:23:25;;;;;;;4.75;4.35;;;;;;;16.93;100.00;100222.97;5590131;31;34456;-66
2022/07/06 01:26:28;;;;;;;5.18;4.50;;;;;;;16.93;100.00;100228.31;5589807;31;34524;-66
2022/07/06 01:29:32;;;;;;;5.05;4.00;;;;;;;16.93;100.00;100222.12;5589478;31;33981;-67
2022/07/06 01:32:35;;;;;;;4.60;4.20;;;;;;;17.01;100.00;100213.84;5589933;31;34441;-67
2022/07/06 01:35:38;;;;;;;4.90;4.40;;;;;;;16.94;100.00;100218.44;5589709;31;33823;-65
2022/07/06 01:38:45;;;;;;;8.40;4.25;;;;;;;16.93;100.00;100228.31;5589718;31;33958;-66
2022/07/06 01:41:48;;;;;;;5.40;4.82;;;;;;;16.90;100.00;100222.53;5589737;31;33909;-67
2022/07/06 01:44:50;;;;;;;6.00;3.65;;;;;;;16.90;100.00;100219.87;5589698;31;34193;-66
2022/07/06 01:47:59;;;;;;;5.93;4.05;;;;;;;16.93;100.00;100235.53;5589590;31;33357;-68
2022/07/06 01:51:03;;;;;;;4.87;4.20;;;;;;;16.90;100.00;100235.94;5589638;31;34176;-67
2022/07/06 01:54:07;;;;;;;4.65;4.05;;;;;;;16.87;100.00;100234.53;5589423;31;34581;-67
2022/07/06 01:57:10;;;;;;;4.70;4.30;;;;;;;16.83;100.00;100243.19;5589531;31;34589;-68
2022/07/06 02:00:14;;;;;;;5.32;4.22;;;;;;;16.82;100.00;100245.06;5589314;31;33922;-67
2022/07/06 02:03:18;;;;;;;4.22;3.83;;;;;;;16.88;100.00;100238.03;5589474;31;34484;-67
2022/07/06 02:06:21;;;;;;;6.12;4.40;;;;;;;16.85;100.00;100249.16;5589378;31;33976;-68
2022/07/06 02:09:23;;;;;;;5.80;3.70;;;;;;;16.85;100.00;100227.72;5589417;31;33982;-65
2022/07/06 02:12:26;;;;;;;4.85;4.03;;;;;;;16.92;100.00;100231.19;5589363;31;33858;-67
2022/07/06 02:15:29;;;;;;;5.18;4.32;;;;;;;16.90;100.00;100233.25;5588452;31;33981;-67
2022/07/06 02:18:31;;;;;;;6.57;4.35;;;;;;;16.85;100.00;100239.25;5589364;31;34016;-68
2022/07/06 02:21:35;;;;;;;5.55;4.07;;;;;;;16.88;100.00;100248.75;5589253;31;33972;-68
2022/07/06 02:24:37;;;;;;;7.95;4.47;;;;;;;16.86;100.00;100248.13;5588398;31;33844;-68
2022/07/06 02:27:40;;;;;;;5.28;4.30;;;;;;;16.84;100.00;100248.34;5588113;31;33742;-67
2022/07/06 02:30:43;;;;;;;5.25;4.35;;;;;;;16.80;100.00;100254.31;5588266;31;34470;-68
2022/07/06 02:33:46;;;;;;;8.18;4.90;;;;;;;16.80;100.00;100262.34;5588493;31;33822;-69
2022/07/06 02:36:49;;;;;;;7.90;4.93;;;;;;;16.81;100.00;100259.47;5589446;31;33894;-69
2022/07/06 02:39:52;;;;;;;6.07;4.50;;;;;;;16.78;100.00;100251.88;5588927;31;34502;-69
2022/07/06 02:42:55;;;;;;;6.00;5.22;;;;;;;16.72;100.00;100251.88;5588780;31;34038;-67
2022/07/06 02:45:58;;;;;;;6.50;5.43;;;;;;;16.73;100.00;100250.84;5588809;31;34551;-67
2022/07/06 02:49:01;;;;;;;6.25;5.30;;;;;;;16.68;100.00;100258.69;5587645;31;32545;-68
2022/07/06 02:52:04;;;;;;;7.10;5.75;;;;;;;16.71;100.00;100260.94;5589088;31;34524;-69
2022/07/06 02:55:08;;;;;;;6.90;5.68;;;;;;;16.67;100.00;100257.87;5588118;31;35200;-68
2022/07/06 02:58:10;;;;;;;8.13;5.70;;;;;;;16.65;100.00;100259.12;5588586;31;33903;-68
2022/07/06 03:01:13;;;;;;;6.90;5.18;;;;;;;16.67;100.00;100265.09;5588480;31;34545;-67
2022/07/06 03:04:16;;;;;;;9.35;5.40;;;;;;;16.68;100.00;100272.91;5588391;31;34534;-69
2022/07/06 03:07:19;;;;;;;6.20;5.60;;;;;;;16.70;100.00;100281.53;5588641;31;33913;-69
2022/07/06 03:10:23;;;;;;;5.82;5.22;;;;;;;16.72;100.00;100292.06;5588744;31;33913;-69
2022/07/06 03:13:26;;;;;;;8.65;5.70;;;;;;;16.68;100.00;100294.34;5590938;31;33878;-69
2022/07/06 03:16:30;;;;;;;7.12;5.75;;;;;;;16.72;100.00;100290.22;5591116;31;33927;-69
2022/07/06 03:19:33;;;;;;;8.32;6.05;;;;;;;16.73;100.00;100304.44;5590853;31;34652;-68
2022/07/06 03:22:35;;;;;;;6.18;5.57;;;;;;;16.79;100.00;100306.28;5591003;31;34630;-69
2022/07/06 03:25:39;;;;;;;7.15;6.20;;;;;;;16.73;100.00;100307.09;5590751;31;34585;-70
2022/07/06 03:28:42;;;;;;;6.00;5.40;;;;;;;16.75;100.00;100305.84;5590609;31;33955;-68
2022/07/06 03:31:45;;;;;;;6.05;5.55;;;;;;;16.69;100.00;100306.72;5590709;31;33832;-67
2022/07/06 03:34:48;;;;;;;6.28;5.68;;;;;;;16.67;100.00;100310.63;5590656;31;33955;-68
2022/07/06 03:37:51;;;;;;;7.15;6.45;;;;;;;16.66;100.00;100317.81;5590734;31;33861;-67
2022/07/06 03:40:54;;;;;;;6.62;6.03;;;;;;;16.63;100.00;100304.03;5591123;31;35091;-69
2022/07/06 03:43:58;;;;;;;7.30;5.90;;;;;;;16.63;100.00;100315.56;5590624;31;34583;-68
2022/07/06 03:47:01;;;;;;;6.82;6.07;;;;;;;16.62;100.00;100318.44;5590550;31;34008;-67
2022/07/06 03:50:04;;;;;;;7.45;6.07;;;;;;;16.56;100.00;100309.34;5590661;31;34657;-68
2022/07/06 03:53:07;;;;;;;6.35;5.72;;;;;;;16.58;100.00;100318.06;5590538;31;33864;-68
2022/07/06 03:56:29;;;;;;;9.20;5.90;;;;;;;16.61;100.00;100303.41;5589776;31;34023;-69
2022/07/06 03:59:32;;;;;;;8.30;5.97;;;;;;;16.62;100.00;100310.41;5590513;31;33800;-68
2022/07/06 04:02:35;;;;;;;7.80;5.37;;;;;;;16.61;100.00;100309.59;5590518;31;34494;-69
2022/07/06 04:05:38;;;;;;;8.52;5.97;;;;;;;16.57;100.00;100310.19;5590495;31;33889;-69
2022/07/06 04:08:41;;;;;;;8.30;5.40;;;;;;;16.59;100.00;100319.72;5590078;31;34292;-67
2022/07/06 04:11:45;;;;;;;8.18;5.22;;;;;;;16.77;100.00;100308.34;5590835;31;33780;-68
2022/07/06 04:14:48;;;;;;;6.07;5.22;;;;;;;16.73;100.00;100324.00;5590687;31;33962;-68
2022/07/06 04:17:53;;;;;;;6.87;5.30;;;;;;;16.88;100.00;100324.59;5590465;31;34629;-68
2022/07/06 04:20:59;;;;;;;5.78;4.80;;;;;;;16.95;100.00;100306.62;5590001;31;33949;-68
2022/07/06 04:24:02;;;;;;;7.80;4.78;;;;;;;17.02;100.00;100300.44;5590470;31;34643;-69
2022/07/06 04:27:05;;;;;;;8.15;5.07;;;;;;;17.04;100.00;100309.88;5590142;31;33824;-70
2022/07/06 04:30:09;;;;;;;9.55;5.07;;;;;;;17.06;100.00;100315.88;5590301;31;33723;-69
2022/07/06 04:33:12;;;;;;;7.18;4.87;;;;;;;17.10;100.00;100311.72;5590178;31;34550;-69
2022/07/06 04:36:15;;;;;;;7.70;4.40;;;;;;;17.20;100.00;100308.59;5590152;31;34384;-69
2022/07/06 04:39:18;;;;;;;6.68;4.82;;;;;;;17.24;100.00;100301.78;5589219;31;34166;-70
2022/07/06 04:42:21;;;;;;;5.93;4.68;;;;;;;17.35;100.00;100307.31;5590517;31;33924;-68
2022/07/06 04:45:23;;;;;;;6.35;4.45;;;;;;;17.30;100.00;100303.62;5590161;31;33839;-70
2022/07/06 04:48:26;;;;;;;8.15;4.37;;;;;;;17.47;100.00;100307.47;5589410;31;33880;-70
2022/07/06 04:51:29;;;;;;;6.53;4.35;;;;;;;17.49;100.00;100301.87;5589925;31;34881;-69
2022/07/06 04:54:33;;;;;;;5.65;4.22;;;;;;;17.55;100.00;100303.69;5588945;31;33004;-69
2022/07/06 04:57:35;;;;;;;5.62;4.40;;;;;;;17.52;100.00;100323.75;5590085;31;34578;-67
2022/07/06 05:00:38;;;;;;;4.50;3.90;;;;;;;17.66;100.00;100327.19;5589304;31;33298;-69
2022/07/06 05:03:42;;;;;;;4.60;4.00;;;;;;;17.71;100.00;100327.38;5590069;31;33879;-69
2022/07/06 05:06:45;;;;;;;5.20;3.97;;;;;;;17.76;100.00;100323.03;5589988;31;33945;-68
2022/07/06 05:09:48;;;;;;;3.70;3.40;;;;;;;17.95;99.28;100331.97;5589213;31;35087;-69
2022/07/06 05:12:55;;;;;;;4.22;3.55;;;;;;;18.07;98.27;100324.84;5590125;31;33867;-69
2022/07/06 05:15:58;;;;;;;4.32;3.75;;;;;;;18.12;97.35;100326.88;5589688;31;33874;-69
2022/07/06 05:19:01;;;;;;;3.87;3.40;;;;;;;18.21;97.83;100326.41;5589071;31;33830;-67
2022/07/06 05:22:04;;;;;;;5.55;3.35;;;;;;;18.34;96.41;100333.53;5589002;31;33860;-67
2022/07/06 05:25:08;;;;;;;5.30;3.05;;;;;;;18.43;95.37;100340.28;5590182;31;35077;-67
2022/07/06 05:28:10;;;;;;;5.78;3.42;;;;;;;18.40;95.81;100343.38;5589820;31;35123;-67
2022/07/06 05:31:13;;;;;;;5.53;3.67;;;;;;;18.62;95.20;100351.94;5589353;31;35040;-67
2022/07/06 05:34:16;;;;;;;6.18;3.55;;;;;;;18.73;93.91;100353.91;5588541;31;34230;-71
2022/07/06 05:37:20;;;;;;;5.60;3.10;;;;;;;18.85;93.25;100343.22;5589631;31;33911;-67
2022/07/06 05:40:23;;;;;;;3.90;2.95;;;;;;;18.79;93.31;100339.53;5589545;31;33880;-68
2022/07/06 05:43:26;;;;;;;5.30;3.30;;;;;;;18.86;92.65;100348.38;5589564;31;33901;-69
2022/07/06 05:46:30;;;;;;;6.55;3.40;;;;;;;18.93;92.58;100354.50;5589549;31;33941;-68
2022/07/06 05:52:57;;;;;;;4.25;3.08;;;;;;;19.26;90.46;100347.94;5589185;31;34009;-67
2022/07/06 05:56:01;;;;;;;3.90;3.20;;;;;;;19.30;89.65;100351.81;5589367;31;33996;-66
2022/07/06 05:59:05;;;;;;;5.03;3.35;;;;;;;19.51;88.37;100356.75;5588547;31;34109;-67
2022/07/06 06:02:07;;;;;;;4.03;2.75;;;;;;;19.62;87.44;100349.78;5589215;31;33895;-68
2022/07/06 06:05:11;;;;;;;4.93;2.87;;;;;;;19.58;87.89;100362.06;5588985;31;34341;-68
2022/07/06 06:08:14;;;;;;;7.53;3.20;;;;;;;19.77;86.97;100364.50;5588964;31;33956;-67
2022/07/06 06:11:17;;;;;;;5.28;3.20;;;;;;;19.91;85.48;100382.09;5588483;31;33221;-69
2022/07/06 06:14:19;;;;;;;4.62;3.17;;;;;;;19.92;86.17;100378.38;5588984;31;34588;-68
2022/07/06 06:17:22;;;;;;;4.43;3.20;;;;;;;20.15;84.79;100384.88;5589081;31;35151;-68
2022/07/06 06:20:25;;;;;;;3.40;3.10;;;;;;;20.06;84.24;100383.56;5589113;31;34495;-68
2022/07/06 06:23:28;;;;;;;4.97;3.10;;;;;;;20.09;83.86;100393.88;5588869;31;34587;-67
2022/07/06 06:26:30;;;;;;;3.87;3.20;;;;;;;20.23;83.87;100393.47;5589001;31;33848;-67
2022/07/06 06:29:33;;;;;;;5.90;3.10;;;;;;;20.37;83.88;100386.84;5574630;31;32412;-68
2022/07/06 06:32:36;;;;;;;6.30;3.33;;;;;;;20.46;82.19;100386.50;5589198;31;33944;-67
2022/07/06 06:35:44;;;;;;;4.18;3.08;;;;;;;20.39;82.17;100379.34;5588073;31;32889;-67
2022/07/06 06:38:48;;;;;;;6.55;3.35;;;;;;;20.56;80.89;100378.66;5588069;31;32445;-68
2022/07/06 06:41:58;;;;;;;4.87;3.05;;;;;;;20.77;80.84;100373.50;5587540;31;32976;-67
2022/07/06 06:45:07;;;;;;;5.50;3.33;;;;;;;20.80;80.48;100388.41;5588711;31;35064;-67
2022/07/06 06:48:10;;;;;;;5.93;3.10;;;;;;;20.86;79.60;100390.16;5590944;31;34512;-67
2022/07/06 06:51:18;;;;;;;4.60;3.25;;;;;;;21.05;78.64;100394.38;5590339;31;32664;-67
2022/07/06 06:54:21;;;;;;;5.18;3.53;;;;;;;21.05;78.41;100407.06;5590922;31;34485;-68
2022/07/06 06:57:24;;;;;;;10.20;3.10;;;;;;;21.05;78.64;100404.34;5590793;31;33877;-66
2022/07/06 07:00:27;;;;;;;3.42;2.95;;;;;;;21.12;78.48;100405.84;5590627;31;33801;-68
2022/07/06 07:03:30;;;;;;;3.55;2.67;;;;;;;21.43;76.93;100403.84;5590723;31;33990;-68
2022/07/06 07:06:33;;;;;;;6.62;3.80;;;;;;;21.47;75.85;100399.63;5590768;31;34505;-68
2022/07/06 07:09:35;;;;;;;7.60;3.00;;;;;;;21.55;74.74;100410.84;5590210;31;33023;-68
2022/07/06 07:12:43;;;;;;;4.25;3.40;;;;;;;21.62;75.29;100403.47;5590811;31;34560;-68
2022/07/06 07:15:45;;;;;;;3.50;3.20;;;;;;;21.79;74.66;100417.00;5590093;31;33963;-67
2022/07/06 07:18:48;;;;;;;4.65;3.33;;;;;;;21.91;73.28;100408.88;5590497;31;33860;-68
2022/07/06 07:21:51;;;;;;;3.50;2.92;;;;;;;21.95;73.44;100412.75;5590732;31;33866;-68
2022/07/06 07:24:54;;;;;;;3.25;2.58;;;;;;;22.09;73.16;100403.28;5590762;31;34073;-67
2022/07/06 07:27:56;;;;;;;3.00;2.70;;;;;;;22.46;70.97;100414.50;5590194;31;33904;-67
2022/07/06 07:30:59;;;;;;;4.30;3.30;;;;;;;22.49;70.32;100417.53;5590547;31;35331;-68
2022/07/06 07:34:02;;;;;;;4.45;3.08;;;;;;;22.52;70.36;100419.72;5589759;31;32142;-68
2022/07/06 07:37:05;;;;;;;4.25;2.83;;;;;;;22.85;69.38;100418.94;5590784;31;34027;-68
2022/07/06 07:40:08;;;;;;;6.75;3.05;;;;;;;23.29;67.41;100425.25;5590425;31;34530;-68
2022/07/06 07:43:11;;;;;;;6.25;2.67;;;;;;;23.85;66.09;100426.00;5588237;31;33975;-70
2022/07/06 07:46:13;;;;;;;5.03;2.30;;;;;;;24.17;62.66;100424.22;5589665;31;32666;-68
2022/07/06 07:49:16;;;;;;;3.87;2.58;;;;;;;24.63;61.80;100422.75;5589738;31;32385;-68
2022/07/06 07:52:23;;;;;;;4.25;2.37;;;;;;;25.09;59.22;100420.37;5590467;31;33961;-67
2022/07/06 07:55:26;;;;;;;2.47;1.77;;;;;;;26.17;56.27;100426.00;5590652;31;33962;-68
2022/07/06 07:58:42;;;;;;;3.05;1.73;;;;;;;26.10;55.21;100426.25;5590169;31;34570;-68
2022/07/06 08:01:46;;;;;;;6.15;1.55;;;;;;;25.69;55.30;100417.19;5589228;31;34203;-68
2022/07/06 08:04:49;;;;;;;3.22;1.50;;;;;;;25.50;53.86;100427.69;5590317;31;33860;-69
2022/07/06 08:07:51;;;;;;;10.35;1.58;;;;;;;25.45;53.41;100430.37;5589381;31;32678;-68
2022/07/06 08:10:54;;;;;;;2.60;1.12;;;;;;;26.18;51.30;100427.66;5589907;31;33811;-68
2022/07/06 08:14:17;;;;;;;2.70;1.23;;;;;;;26.66;49.89;100429.91;5589796;31;34842;-68
2022/07/06 08:17:20;;;;;;;4.70;1.50;;;;;;;27.32;48.61;100424.34;5589847;31;35285;-69
2022/07/06 08:20:23;;;;;;;2.40;1.40;;;;;;;27.62;47.08;100429.75;5590410;31;34628;-69
2022/07/06 08:23:26;;;;;;;2.17;1.35;;;;;;;28.20;45.01;100434.63;5589390;31;32541;-69
2022/07/06 08:26:30;;;;;;;3.47;1.37;;;;;;;28.47;44.56;100424.88;5589365;31;33862;-68
2022/07/06 08:29:33;;;;;;;3.05;1.20;;;;;;;28.24;43.82;100431.06;5588467;31;34577;-68
2022/07/06 08:32:43;;;;;;;4.97;1.50;;;;;;;28.39;44.62;100443.78;5589088;31;33363;-68
2022/07/06 08:36:06;;;;;;;4.03;1.65;;;;;;;28.76;43.52;100437.78;5589645;31;33962;-69
2022/07/06 08:39:09;;;;;;;1.20;1.10;;;;;;;30.25;41.27;100442.91;5589198;31;34464;-68
2022/07/06 08:42:12;;;;;;;4.07;1.17;;;;;;;30.72;38.42;100446.56;5589582;31;33556;-69
2022/07/06 08:45:16;;;;;;;2.08;1.00;;;;;;;28.15;42.81;100451.84;5589772;31;35199;-68
2022/07/06 08:48:22;;;;;;;1.75;1.10;;;;;;;29.83;39.08;100449.22;5589209;31;34578;-69
2022/07/06 08:51:27;;;;;;;1.60;1.10;;;;;;;30.49;38.66;100451.88;5588694;31;34615;-69
2022/07/06 08:54:33;;;;;;;2.72;1.30;;;;;;;29.08;39.38;100445.41;5590121;31;34701;-69
2022/07/06 08:57:35;;;;;;;4.25;1.30;;;;;;;29.19;39.08;100439.53;5589841;31;33851;-67
2022/07/06 09:00:39;;;;;;;1.75;1.23;;;;;;;30.36;38.01;100440.81;5575898;31;34551;-68
2022/07/06 09:03:45;;;;;;;2.33;1.37;;;;;;;31.44;35.58;100437.59;5589584;31;34849;-68
2022/07/06 09:06:49;;;;;;;1.87;1.37;;;;;;;31.84;35.48;100437.88;5575567;31;32952;-68
2022/07/06 09:09:52;;;;;;;2.40;1.25;;;;;;;30.69;37.21;100436.22;5588504;31;33967;-68
2022/07/06 09:13:07;;;;;;;2.03;1.30;;;;;;;31.07;36.04;100435.03;5575887;31;34221;-69
2022/07/06 09:16:15;;;;;;;3.62;1.27;;;;;;;31.24;35.11;100437.16;5589658;31;34518;-68
2022/07/06 09:19:45;;;;;;;4.47;1.50;;;;;;;30.86;36.01;100448.25;5575903;31;32394;-69
2022/07/06 09:22:48;;;;;;;1.98;1.80;;;;;;;32.30;34.51;100434.94;5569586;31;34024;-69
2022/07/06 09:25:54;;;;;;;1.80;1.50;;;;;;;31.92;34.85;100428.91;5589202;31;34141;-68
2022/07/06 09:28:59;;;;;;;6.65;1.30;;;;;;;31.00;35.14;100421.69;5575345;31;33864;-69
2022/07/06 09:32:05;;;;;;;1.77;1.30;;;;;;;32.07;33.04;100436.81;5589088;31;33896;-68
2022/07/06 09:35:19;;;;;;;5.37;1.40;;;;;;;33.45;31.51;100427.56;5589562;31;33977;-68
2022/07/06 09:38:26;;;;;;;2.55;1.40;;;;;;;33.80;30.39;100428.50;5589025;31;34602;-68
2022/07/06 09:41:32;;;;;;;4.20;1.73;;;;;;;31.97;32.51;100428.81;5575170;31;33320;-69
2022/07/06 09:44:40;;;;;;;5.50;1.50;;;;;;;32.03;33.37;100438.56;5589277;31;32261;-68
2022/07/06 09:47:47;;;;;;;1.70;1.60;;;;;;;32.86;31.79;100426.16;5589523;31;33859;-70
2022/07/06 09:50:58;;;;;;;2.45;1.50;;;;;;;31.84;32.66;100430.47;5589317;31;35196;-68
2022/07/06 09:54:05;;;;;;;2.37;1.70;;;;;;;31.16;33.64;100435.12;5575128;31;34614;-68
2022/07/06 09:57:08;;;;;;;2.95;1.73;;;;;;;32.70;32.08;100433.16;5588778;31;34580;-68
2022/07/06 10:00:12;;;;;;;2.33;1.62;;;;;;;33.39;30.07;100437.09;5588723;31;34142;-68
2022/07/06 10:03:18;;;;;;;3.25;1.70;;;;;;;34.93;27.50;100432.06;5575369;31;34044;-69
2022/07/06 10:06:20;;;;;;;3.35;1.70;;;;;;;31.47;33.07;100434.22;5588814;31;35131;-69
2022/07/06 10:09:25;;;;;;;3.80;1.73;;;;;;;33.17;30.71;100423.41;5589195;31;33939;-68
2022/07/06 10:12:29;;;;;;;4.03;1.85;;;;;;;32.41;30.80;100425.34;5562675;31;34134;-68
2022/07/06 10:15:32;;;;;;;2.40;1.67;;;;;;;32.69;30.20;100435.09;5588767;31;34510;-68
2022/07/06 10:18:35;;;;;;;1.70;1.48;;;;;;;32.92;29.69;100427.63;5588840;31;34522;-69
2022/07/06 10:21:40;;;;;;;1.42;1.33;;;;;;;32.80;30.51;100421.09;5561863;31;35111;-68
2022/07/06 10:24:43;;;;;;;1.98;1.65;;;;;;;32.37;30.51;100423.53;5588904;31;33863;-69
2022/07/06 10:27:47;;;;;;;1.98;1.33;;;;;;;32.16;30.99;100426.75;5585550;31;93409;-67
2022/07/06 10:30:50;;;;;;;3.45;1.48;;;;;;;31.54;31.39;100417.38;5574536;31;33150;-68
2022/07/06 10:33:54;;;;;;;3.03;1.75;;;;;;;31.59;31.68;100422.78;5561918;31;32578;-68
2022/07/06 10:36:56;;;;;;;2.10;1.50;;;;;;;32.67;28.51;100431.88;5588752;31;35113;-68
2022/07/06 10:43:22;;;;;;;2.85;1.62;;;;;;;34.63;26.10;100422.84;5588978;31;33818;-67
2022/07/06 10:46:28;;;;;;;4.57;1.92;;;;;;;35.16;24.40;100423.22;5588574;31;35109;-68
2022/07/06 10:49:31;;;;;;;2.62;1.52;;;;;;;33.47;26.56;100430.81;5588574;31;33933;-69
2022/07/06 10:52:58;;;;;;;2.30;1.70;;;;;;;34.99;24.99;100428.00;5588554;31;33866;-69
2022/07/06 10:56:09;;;;;;;2.10;1.60;;;;;;;34.87;24.87;100432.22;5588699;31;34571;-70
2022/07/06 10:59:17;;;;;;;2.85;1.42;;;;;;;33.51;25.04;100439.22;5574664;31;33881;-69
2022/07/06 11:02:22;;;;;;;2.62;1.80;;;;;;;34.05;24.14;100427.72;5588364;31;34532;-67
2022/07/06 11:05:41;;;;;;;3.50;1.60;;;;;;;34.72;24.36;100420.91;5574636;31;33218;-68
2022/07/06 11:09:09;;;;;;;2.85;1.60;;;;;;;32.97;26.62;100424.75;5588147;31;33921;-69
2022/07/06 11:12:18;;;;;;;1.67;1.40;;;;;;;36.23;22.39;100431.06;5574349;31;33548;-68
2022/07/06 11:15:39;;;;;;;;;;;;;;;33.73;22.75;100405.34;5588539;31;34298;-67
2022/07/06 11:18:58;;;;;;;3.25;1.60;;;;;;;33.96;22.79;100415.09;5588136;31;34861;-68
2022/07/06 11:22:08;;;;;;;2.05;1.60;;;;;;;36.55;20.69;100412.91;5574014;31;33915;-67
2022/07/06 11:25:15;;;;;;;2.60;1.60;;;;;;;34.52;22.06;100411.34;5588019;31;33922;-67
2022/07/06 11:28:18;;;;;;;1.67;1.48;;;;;;;34.94;22.23;100415.19;5573504;31;33049;-68
2022/07/06 11:31:22;;;;;;;2.45;1.50;;;;;;;36.12;20.37;100408.53;5588342;31;34144;-68
2022/07/06 11:34:27;;;;;;;2.40;1.60;;;;;;;35.48;21.75;100416.28;5591118;31;33918;-69
2022/07/06 11:37:30;;;;;;;2.15;1.50;;;;;;;35.82;21.48;100411.72;5590490;31;33919;-69
2022/07/06 11:40:37;;;;;;;5.85;1.85;;;;;;;35.29;21.75;100426.94;5576632;31;34024;-70
2022/07/06 11:43:45;;;;;;;4.57;1.40;;;;;;;33.97;21.55;100411.19;5576503;31;33151;-69
2022/07/06 11:46:48;;;;;;;2.62;1.85;;;;;;;35.14;20.97;100411.72;5590463;31;33915;-68
2022/07/06 11:49:52;;;;;;;3.50;1.70;;;;;;;36.05;20.41;100411.06;5590477;31;33960;-70
2022/07/06 11:52:55;;;;;;;2.33;1.70;;;;;;;34.41;22.52;100421.13;5570043;31;32795;-68
2022/07/06 11:56:03;;;;;;;6.28;1.90;;;;;;;32.68;24.69;100416.16;5576728;31;33792;-70
2022/07/06 11:59:08;;;;;;;2.87;1.75;;;;;;;34.18;23.25;100416.91;5590294;31;35194;-70
2022/07/06 12:02:14;;;;;;;4.15;2.30;;;;;;;35.84;21.38;100412.19;5590252;31;35299;-66
2022/07/06 12:05:31;;;;;;;2.85;1.92;;;;;;;35.69;21.46;100422.66;5576655;31;33985;-67
2022/07/06 12:08:48;;;;;;;3.40;2.00;;;;;;;35.33;21.71;100427.88;5590334;31;34203;-67
2022/07/06 12:11:51;;;;;;;2.90;1.90;;;;;;;35.74;20.90;100411.44;5590217;31;33994;-68
2022/07/06 12:14:54;;;;;;;6.37;1.98;;;;;;;34.49;22.09;100412.03;5590517;31;33956;-67
2022/07/06 12:17:57;;;;;;;4.07;2.30;;;;;;;32.57;24.04;100410.13;5589995;31;35131;-67
2022/07/06 12:20:59;;;;;;;2.10;1.80;;;;;;;30.56;26.77;100403.00;5590456;31;33872;-67
2022/07/06 12:24:07;;;;;;;4.10;2.28;;;;;;;30.27;27.73;100412.50;5576617;31;34463;-67
2022/07/06 12:27:16;;;;;;;4.45;1.70;;;;;;;32.89;24.55;100421.97;5590010;31;33989;-68
2022/07/06 12:30:19;;;;;;;3.28;2.33;;;;;;;34.53;22.40;100420.44;5590400;31;34677;-67
2022/07/06 12:33:27;;;;;;;2.80;1.98;;;;;;;34.82;21.85;100406.78;5590110;31;35085;-67
2022/07/06 12:36:42;;;;;;;4.65;1.75;;;;;;;34.00;23.08;100416.87;5590077;31;34348;-68
2022/07/06 12:39:47;;;;;;;3.12;1.80;;;;;;;32.83;23.05;100415.78;5590206;31;33896;-69
2022/07/06 12:42:51;;;;;;;3.92;1.65;;;;;;;33.93;22.09;100411.03;5576021;31;32292;-68
2022/07/06 12:45:54;;;;;;;3.67;2.08;;;;;;;38.02;18.30;100406.34;5576291;31;32617;-68
2022/07/06 12:49:01;;;;;;;2.55;1.95;;;;;;;34.25;21.37;100396.00;5589873;31;34548;-68
2022/07/06 12:52:14;;;;;;;;;;;;;;;35.71;19.42;100406.59;5590105;31;33876;-68
2022/07/06 12:55:25;;;;;;;2.30;1.42;;;;;;;36.30;18.47;100414.78;5575593;31;32937;-68
2022/07/06 12:58:28;;;;;;;1.67;1.20;;;;;;;37.16;18.01;100413.06;5590301;31;35015;-68
2022/07/06 13:01:31;;;;;;;3.08;1.55;;;;;;;35.86;18.47;100396.91;5589850;31;34459;-70
2022/07/06 13:04:35;;;;;;;2.70;1.60;;;;;;;35.84;19.29;100403.88;5576043;31;35127;-68
2022/07/06 13:07:43;;;;;;;4.95;1.60;;;;;;;33.69;20.67;100401.62;5589988;31;33879;-69
2022/07/06 13:10:46;;;;;;;;;;;;;;;31.62;23.41;100416.66;5576076;31;32916;-68
2022/07/06 13:13:50;;;;;;;2.97;1.85;;;;;;;33.79;20.67;100406.81;5576042;31;34241;-68
2022/07/06 13:16:53;;;;;;;2.53;1.50;;;;;;;34.48;20.04;100397.44;5589373;31;35189;-69
2022/07/06 13:19:57;;;;;;;4.28;1.40;;;;;;;34.70;19.58;100393.69;5589329;31;34378;-69
2022/07/06 13:23:00;;;;;;;3.47;1.30;;;;;;;34.23;20.27;100394.72;5589630;31;34143;-68
2022/07/06 13:26:04;;;;;;;2.83;1.42;;;;;;;35.02;19.49;100394.22;5575903;31;33844;-69
2022/07/06 13:29:10;;;;;;;2.33;1.20;;;;;;;35.02;19.61;100397.81;5575870;31;35173;-69
2022/07/06 13:32:13;;;;;;;4.87;1.30;;;;;;;37.08;17.84;100411.25;5589695;31;33863;-68
2022/07/06 13:35:18;;;;;;;3.40;1.20;;;;;;;36.56;18.70;100407.03;5589554;31;34760;-70
2022/07/06 13:38:20;;;;;;;4.25;1.48;;;;;;;36.43;20.05;100390.75;5589403;31;34091;-69
2022/07/06 13:41:23;;;;;;;6.78;2.10;;;;;;;36.22;21.26;100403.78;5589169;31;34047;-69
2022/07/06 13:44:26;;;;;;;3.45;1.55;;;;;;;35.02;23.28;100397.81;5589453;31;34584;-68
2022/07/06 13:47:29;;;;;;;3.30;1.65;;;;;;;36.78;21.24;100405.84;5575482;31;32293;-70
2022/07/06 13:50:32;;;;;;;2.95;1.40;;;;;;;35.77;21.59;100392.59;5589386;31;33944;-69
2022/07/06 13:53:35;;;;;;;2.92;1.73;;;;;;;35.65;20.91;100402.41;5589427;31;34641;-68
2022/07/06 13:56:39;;;;;;;2.20;1.45;;;;;;;35.76;20.76;100410.28;5589420;31;34624;-68
2022/07/06 13:59:42;;;;;;;3.62;1.52;;;;;;;36.38;20.30;100413.87;5589340;31;34052;-68
2022/07/06 14:02:45;;;;;;;9.13;1.70;;;;;;;36.27;20.74;100411.84;5589235;31;34049;-68
2022/07/06 14:05:50;;;;;;;5.20;1.40;;;;;;;34.69;21.69;100396.78;5589155;31;34597;-70
2022/07/06 14:08:53;;;;;;;2.08;1.30;;;;;;;34.12;21.72;100396.97;5589156;31;34520;-68
2022/07/06 14:11:56;;;;;;;3.25;1.40;;;;;;;34.12;21.59;100398.91;5589318;31;34592;-70
2022/07/06 14:14:59;;;;;;;5.07;1.35;;;;;;;34.75;21.36;100406.50;5575386;31;33943;-67
2022/07/06 14:18:02;;;;;;;4.50;1.37;;;;;;;35.22;20.26;100413.66;5588998;31;34287;-68
2022/07/06 14:21:05;;;;;;;3.45;1.40;;;;;;;34.92;21.01;100403.69;5589037;31;33939;-68
2022/07/06 14:24:12;;;;;;;3.55;1.40;;;;;;;36.22;20.02;100417.59;5575891;31;34346;-70